Time;durP1;ratioP1;P1;durP2;ratioP2;P2;SDS_P1;SDS_P2;PMS_P1;PMS_P2;Temp;Humidity;BMP_temperature;BMP_pressure;BME280_temperature;BME280_humidity;BME280_pressure;Samples;Min_cycle;Max_cycle;Signal;HPM_P1;HPM_P2
2021/04/19 00:00:43;;;;;;;;;;;3.00;97.40;;;;;;5010844;28;19979;-69
2021/04/19 00:03:10;;;;;;;;;;;3.00;97.50;;;;;;5016116;28;20253;-69
2021/04/19 00:05:36;;;;;;;;;;;3.00;97.50;;;;;;5008761;28;20243;-68
2021/04/19 00:08:04;;;;;;;;;;;2.90;97.40;;;;;;5015723;28;19922;-69
2021/04/19 00:10:30;;;;;;;;;;;2.90;97.40;;;;;;5021518;28;19932;-69
2021/04/19 00:12:55;;;;;;;;;;;2.80;97.30;;;;;;5009996;28;19918;-70
2021/04/19 00:15:21;;;;;;;;;;;2.90;97.40;;;;;;5016362;28;19965;-69
2021/04/19 00:17:47;;;;;;;;;;;3.00;97.40;;;;;;5010278;28;19939;-69
2021/04/19 00:20:13;;;;;;;;;;;3.00;97.60;;;;;;5013504;28;20323;-70
2021/04/19 00:22:39;;;;;;;;;;;2.90;97.60;;;;;;5014405;28;19920;-70
2021/04/19 00:25:04;;;;;;;;;;;2.90;97.40;;;;;;5018233;28;19913;-68
2021/04/19 00:27:30;;;;;;;;;;;2.80;97.40;;;;;;5012148;28;19921;-69
2021/04/19 00:29:56;;;;;;;;;;;2.80;97.30;;;;;;5011433;28;19926;-70
2021/04/19 00:32:21;;;;;;;;;;;2.80;97.40;;;;;;5013273;28;19921;-70
2021/04/19 00:34:47;;;;;;;;;;;2.80;97.30;;;;;;5010176;28;20011;-69
2021/04/19 00:37:15;;;;;;;;;;;2.80;97.50;;;;;;5013312;28;19913;-70
2021/04/19 00:39:43;;;;;;;;;;;2.80;97.50;;;;;;5015270;28;19998;-69
2021/04/19 00:42:09;;;;;;;;;;;2.70;97.50;;;;;;5012592;28;19914;-68
2021/04/19 00:44:35;;;;;;;;;;;2.80;97.50;;;;;;5018412;28;19921;-69
2021/04/19 00:47:01;;;;;;;;;;;2.80;97.50;;;;;;5013886;28;19966;-69
2021/04/19 00:49:27;;;;;;;;;;;2.70;97.50;;;;;;5017023;28;19920;-69
2021/04/19 00:51:53;;;;;;;;;;;2.60;97.50;;;;;;5013151;28;19918;-70
2021/04/19 00:54:19;;;;;;;;;;;2.40;97.30;;;;;;5027233;28;19931;-70
2021/04/19 00:56:46;;;;;;;;;;;2.40;97.30;;;;;;5028537;28;19913;-70
2021/04/19 00:59:12;;;;;;;;;;;2.30;97.30;;;;;;5036984;28;19916;-69
2021/04/19 01:01:37;;;;;;;;;;;2.30;97.40;;;;;;5034935;28;19920;-69
2021/04/19 01:04:03;;;;;;;;;;;2.20;97.50;;;;;;5034806;28;19959;-70
2021/04/19 01:06:28;;;;;;;;;;;2.10;97.30;;;;;;5027688;28;20217;-70
2021/04/19 01:08:54;;;;;;;;;;;1.90;97.40;;;;;;5025265;28;19936;-69
2021/04/19 01:11:20;;;;;;;;;;;1.90;97.30;;;;;;5026473;28;20253;-70
2021/04/19 01:13:45;;;;;;;;;;;1.70;97.20;;;;;;5026824;28;20161;-70
2021/04/19 01:16:11;;;;;;;;;;;1.60;97.40;;;;;;5025725;28;19913;-70
2021/04/19 01:18:36;;;;;;;;;;;1.60;97.40;;;;;;5044798;28;19925;-70
2021/04/19 01:21:02;;;;;;;;;;;1.50;97.20;;;;;;5029763;28;19917;-70
2021/04/19 01:23:28;;;;;;;;;;;1.70;97.10;;;;;;5029755;28;19972;-70
2021/04/19 01:25:53;;;;;;;;;;;1.70;97.30;;;;;;5030218;28;19916;-69
2021/04/19 01:28:21;;;;;;;;;;;1.80;97.30;;;;;;5030065;28;19921;-70
2021/04/19 01:30:51;;;;;;;;;;;1.80;97.50;;;;;;5030991;28;20003;-70
2021/04/19 01:33:18;;;;;;;;;;;1.90;97.50;;;;;;5029486;28;19921;-70
2021/04/19 01:35:47;;;;;;;;;;;2.00;97.60;;;;;;5029591;28;19920;-70
2021/04/19 01:38:13;;;;;;;;;;;2.10;97.60;;;;;;5026637;28;19979;-70
2021/04/19 01:40:39;;;;;;;;;;;2.20;97.70;;;;;;5031655;28;19979;-70
2021/04/19 01:43:05;;;;;;;;;;;2.10;97.90;;;;;;5029853;28;20012;-70
2021/04/19 01:45:31;;;;;;;;;;;1.90;97.50;;;;;;5030682;28;20404;-69
2021/04/19 01:47:57;;;;;;;;;;;1.80;97.50;;;;;;5029803;28;19958;-70
2021/04/19 01:50:23;;;;;;;;;;;1.70;97.50;;;;;;5030606;28;21394;-70
2021/04/19 01:52:49;;;;;;;;;;;1.70;97.50;;;;;;5029656;28;19921;-70
2021/04/19 01:55:16;;;;;;;;;;;1.60;97.30;;;;;;5023205;28;20222;-70
2021/04/19 01:57:43;;;;;;;;;;;1.60;97.20;;;;;;5016763;28;19909;-70
2021/04/19 02:00:10;;;;;;;;;;;1.60;97.40;;;;;;5015795;28;20448;-70
2021/04/19 02:03:01;;;;;;;;;;;1.50;97.40;;;;;;5020320;28;19913;-70
2021/04/19 02:05:37;;;;;;;;;;;1.50;97.40;;;;;;4994488;28;19921;-70
2021/04/19 02:08:21;;;;;;;;;;;1.60;97.40;;;;;;5020472;28;19925;-70
2021/04/19 02:10:53;;;;;;;;;;;1.60;97.40;;;;;;4997522;28;20191;-70
2021/04/19 02:13:34;;;;;;;;;;;1.50;97.50;;;;;;5001233;28;19913;-70
2021/04/19 02:16:02;;;;;;;;;;;1.40;97.40;;;;;;5018867;28;19924;-70
2021/04/19 02:18:46;;;;;;;;;;;1.30;97.40;;;;;;5001324;28;19925;-70
2021/04/19 02:21:18;;;;;;;;;;;1.30;97.30;;;;;;5021546;28;19921;-70
2021/04/19 02:23:55;;;;;;;;;;;1.30;97.40;;;;;;5015958;28;19936;-70
2021/04/19 02:26:32;;;;;;;;;;;1.30;97.20;;;;;;5014269;28;19921;-69
2021/04/19 02:29:07;;;;;;;;;;;1.40;97.10;;;;;;5018463;28;19921;-70
2021/04/19 02:31:34;;;;;;;;;;;1.60;97.20;;;;;;5015486;28;19914;-69
2021/04/19 02:34:02;;;;;;;;;;;1.70;97.40;;;;;;5006178;28;19917;-70
2021/04/19 02:36:28;;;;;;;;;;;1.70;97.50;;;;;;5015821;28;19921;-70
2021/04/19 02:38:57;;;;;;;;;;;1.70;97.50;;;;;;5015171;28;20286;-70
2021/04/19 02:41:24;;;;;;;;;;;1.60;97.50;;;;;;5021607;28;19971;-70
2021/04/19 02:43:51;;;;;;;;;;;1.60;97.40;;;;;;5016037;28;19921;-70
2021/04/19 02:46:17;;;;;;;;;;;1.50;97.40;;;;;;5018643;28;19917;-70
2021/04/19 02:48:45;;;;;;;;;;;1.40;97.50;;;;;;5016457;28;20337;-70
2021/04/19 02:51:11;;;;;;;;;;;1.30;97.50;;;;;;5023864;28;20284;-70
2021/04/19 02:53:37;;;;;;;;;;;1.10;97.50;;;;;;5020512;28;20065;-70
2021/04/19 02:56:07;;;;;;;;;;;1.10;97.50;;;;;;5035797;28;20016;-69
2021/04/19 02:58:40;;;;;;;;;;;0.90;97.30;;;;;;5000347;28;19921;-69
2021/04/19 03:01:06;;;;;;;;;;;1.00;97.20;;;;;;5007578;28;19921;-68
2021/04/19 03:03:33;;;;;;;;;;;1.10;97.10;;;;;;5017911;28;19930;-70
2021/04/19 03:06:03;;;;;;;;;;;1.20;97.00;;;;;;5015785;28;19927;-69
2021/04/19 03:08:31;;;;;;;;;;;1.20;97.10;;;;;;4998159;28;19921;-69
2021/04/19 03:10:58;;;;;;;;;;;1.30;97.30;;;;;;5014290;28;19922;-70
2021/04/19 03:13:24;;;;;;;;;;;1.30;97.10;;;;;;5019342;28;19947;-69
2021/04/19 03:15:52;;;;;;;;;;;1.30;97.00;;;;;;5017709;28;20306;-68
2021/04/19 03:18:18;;;;;;;;;;;1.20;97.30;;;;;;5018572;28;19971;-69
2021/04/19 03:20:50;;;;;;;;;;;1.20;97.20;;;;;;5002067;28;19921;-68
2021/04/19 03:23:18;;;;;;;;;;;1.00;97.40;;;;;;5020971;28;20396;-69
2021/04/19 03:25:45;;;;;;;;;;;0.80;97.30;;;;;;5010753;28;19932;-69
2021/04/19 03:28:10;;;;;;;;;;;0.80;96.80;;;;;;5011500;28;19918;-68
2021/04/19 03:30:36;;;;;;;;;;;1.00;97.00;;;;;;5017672;28;19917;-68
2021/04/19 03:33:02;;;;;;;;;;;1.10;96.80;;;;;;5012084;28;20354;-69
2021/04/19 03:35:29;;;;;;;;;;;1.20;97.00;;;;;;5016208;28;20264;-67
2021/04/19 03:37:56;;;;;;;;;;;1.10;97.10;;;;;;5011713;28;20017;-68
2021/04/19 03:40:27;;;;;;;;;;;1.00;97.40;;;;;;5019214;28;20314;-67
2021/04/19 03:42:54;;;;;;;;;;;0.80;97.10;;;;;;5011949;28;20210;-67
2021/04/19 03:45:20;;;;;;;;;;;0.80;97.10;;;;;;5010164;28;19913;-69
2021/04/19 03:47:47;;;;;;;;;;;0.90;96.90;;;;;;5023351;28;19979;-70
2021/04/19 03:50:13;;;;;;;;;;;0.90;97.00;;;;;;5016470;28;20303;-69
2021/04/19 03:52:45;;;;;;;;;;;1.00;96.80;;;;;;5018031;28;19966;-70
2021/04/19 03:55:12;;;;;;;;;;;1.00;97.00;;;;;;5024377;28;19979;-69
2021/04/19 03:57:39;;;;;;;;;;;1.10;96.60;;;;;;5012226;28;19913;-69
2021/04/19 04:00:07;;;;;;;;;;;1.20;96.70;;;;;;5018946;28;19924;-69
2021/04/19 04:02:35;;;;;;;;;;;1.30;96.80;;;;;;5022627;28;19952;-70
2021/04/19 04:05:01;;;;;;;;;;;1.20;97.00;;;;;;5027726;28;19999;-70
2021/04/19 04:07:27;;;;;;;;;;;1.30;96.70;;;;;;5013756;28;19928;-69
2021/04/19 04:09:53;;;;;;;;;;;1.40;96.80;;;;;;5018455;28;19913;-70
2021/04/19 04:12:18;;;;;;;;;;;1.50;97.00;;;;;;5007938;28;19922;-68
2021/04/19 04:14:54;;;;;;;;;;;1.40;96.90;;;;;;5018818;28;20311;-69
2021/04/19 04:17:20;;;;;;;;;;;1.30;97.00;;;;;;5010196;28;19969;-69
2021/04/19 04:19:45;;;;;;;;;;;1.30;96.70;;;;;;5017607;28;20317;-69
2021/04/19 04:22:12;;;;;;;;;;;1.40;96.80;;;;;;5011165;28;19929;-70
2021/04/19 04:24:38;;;;;;;;;;;1.40;96.80;;;;;;5009798;28;19913;-69
2021/04/19 04:27:04;;;;;;;;;;;1.60;96.70;;;;;;4998185;28;20471;-70
2021/04/19 04:29:29;;;;;;;;;;;1.70;96.80;;;;;;5012683;28;19959;-69
2021/04/19 04:31:55;;;;;;;;;;;1.70;96.90;;;;;;5011102;28;19918;-69
2021/04/19 04:34:20;;;;;;;;;;;1.90;96.80;;;;;;5011916;28;19956;-70
2021/04/19 04:36:48;;;;;;;;;;;1.90;97.10;;;;;;5013326;28;20327;-69
2021/04/19 04:39:14;;;;;;;;;;;1.90;97.20;;;;;;5012521;28;20024;-69
2021/04/19 04:41:39;;;;;;;;;;;1.80;97.10;;;;;;5016489;28;20054;-69
2021/04/19 04:44:06;;;;;;;;;;;1.80;97.10;;;;;;5012766;28;20300;-70
2021/04/19 04:46:52;;;;;;;;;;;1.90;97.10;;;;;;5015758;28;20511;-70
2021/04/19 04:49:22;;;;;;;;;;;1.90;97.20;;;;;;5013903;28;20298;-69
2021/04/19 04:51:48;;;;;;;;;;;1.80;97.00;;;;;;5012072;28;19984;-69
2021/04/19 04:54:15;;;;;;;;;;;1.90;97.00;;;;;;5013795;28;19933;-69
2021/04/19 04:56:42;;;;;;;;;;;2.10;97.10;;;;;;5022330;28;19921;-70
2021/04/19 04:59:07;;;;;;;;;;;2.30;97.00;;;;;;5022247;28;19924;-69
2021/04/19 05:01:34;;;;;;;;;;;2.40;97.20;;;;;;5029640;28;19922;-72
2021/04/19 05:04:01;;;;;;;;;;;2.40;97.50;;;;;;5024090;28;20209;-69
2021/04/19 05:06:27;;;;;;;;;;;2.30;97.50;;;;;;5015830;28;19914;-69
2021/04/19 05:08:53;;;;;;;;;;;2.10;97.70;;;;;;5021662;28;19925;-70
2021/04/19 05:11:19;;;;;;;;;;;2.20;97.50;;;;;;5015400;28;19949;-69
2021/04/19 05:13:45;;;;;;;;;;;2.40;97.30;;;;;;5010920;28;19953;-68
2021/04/19 05:16:10;;;;;;;;;;;2.50;97.50;;;;;;5016869;28;20025;-70
2021/04/19 05:18:36;;;;;;;;;;;2.60;97.50;;;;;;5012512;28;19932;-69
2021/04/19 05:21:01;;;;;;;;;;;2.80;97.50;;;;;;5018803;28;19913;-70
2021/04/19 05:23:28;;;;;;;;;;;2.80;97.80;;;;;;5020459;28;19929;-69
2021/04/19 05:25:54;;;;;;;;;;;2.80;97.80;;;;;;5017991;28;19917;-70
2021/04/19 05:28:20;;;;;;;;;;;2.90;97.80;;;;;;5014868;28;19913;-69
2021/04/19 05:30:48;;;;;;;;;;;3.00;97.80;;;;;;4999235;28;19918;-68
2021/04/19 05:33:14;;;;;;;;;;;3.10;97.90;;;;;;5018441;28;19913;-71
2021/04/19 05:35:40;;;;;;;;;;;3.20;98.00;;;;;;5029947;28;20283;-67
2021/04/19 05:38:06;;;;;;;;;;;3.20;98.00;;;;;;5022417;28;19957;-70
2021/04/19 05:40:33;;;;;;;;;;;3.40;98.00;;;;;;5012902;28;19917;-69
2021/04/19 05:42:58;;;;;;;;;;;3.40;98.00;;;;;;4994237;28;20444;-69
2021/04/19 05:45:25;;;;;;;;;;;3.50;98.00;;;;;;5006313;28;20001;-68
2021/04/19 05:47:51;;;;;;;;;;;3.60;98.00;;;;;;5027641;28;19919;-70
2021/04/19 05:50:18;;;;;;;;;;;3.70;98.00;;;;;;5024944;28;19979;-70
2021/04/19 05:52:44;;;;;;;;;;;3.80;98.00;;;;;;5015995;28;20089;-68
2021/04/19 05:55:13;;;;;;;;;;;3.80;98.00;;;;;;5025363;28;20561;-68
2021/04/19 05:58:08;;;;;;;;;;;3.90;98.00;;;;;;5022950;28;19922;-70
2021/04/19 06:00:53;;;;;;;;;;;4.20;98.00;;;;;;5007041;28;20008;-69
2021/04/19 06:03:22;;;;;;;;;;;4.20;98.00;;;;;;5018873;28;19932;-70
2021/04/19 06:06:15;;;;;;;;;;;4.10;98.00;;;;;;5019698;28;19920;-68
2021/04/19 06:08:42;;;;;;;;;;;4.10;98.00;;;;;;4997406;28;20032;-69
2021/04/19 06:11:23;;;;;;;;;;;4.10;98.00;;;;;;5012750;28;19923;-69
2021/04/19 06:13:49;;;;;;;;;;;4.20;98.00;;;;;;5005686;28;21317;-69
2021/04/19 06:16:15;;;;;;;;;;;4.30;98.00;;;;;;5020118;28;19920;-70
2021/04/19 06:18:43;;;;;;;;;;;4.50;98.00;;;;;;5015145;28;19948;-70
2021/04/19 06:21:09;;;;;;;;;;;4.70;98.00;;;;;;5010248;28;20199;-69
2021/04/19 06:23:35;;;;;;;;;;;4.90;98.00;;;;;;5018253;28;19932;-69
2021/04/19 06:26:01;;;;;;;;;;;5.10;98.00;;;;;;5012719;28;19976;-69
2021/04/19 06:28:26;;;;;;;;;;;5.20;98.00;;;;;;5013443;28;19918;-69
2021/04/19 06:30:55;;;;;;;;;;;5.20;97.80;;;;;;5011772;28;19920;-68
2021/04/19 06:33:20;;;;;;;;;;;5.30;97.70;;;;;;5018850;28;20341;-68
2021/04/19 06:35:47;;;;;;;;;;;5.30;97.60;;;;;;5019066;28;20012;-69
2021/04/19 06:38:13;;;;;;;;;;;5.30;97.40;;;;;;5014930;28;20233;-68
2021/04/19 06:40:40;;;;;;;;;;;5.30;97.60;;;;;;5012869;28;19957;-70
2021/04/19 06:43:06;;;;;;;;;;;5.50;97.80;;;;;;4999245;28;20325;-70
2021/04/19 06:45:32;;;;;;;;;;;5.60;97.30;;;;;;5011024;28;19917;-70
2021/04/19 06:48:00;;;;;;;;;;;5.70;97.20;;;;;;4995266;28;19922;-70
2021/04/19 06:50:25;;;;;;;;;;;5.80;97.10;;;;;;5012356;28;20061;-70
2021/04/19 06:52:51;;;;;;;;;;;6.00;96.90;;;;;;5012759;28;19921;-69
2021/04/19 06:55:17;;;;;;;;;;;6.20;96.20;;;;;;5015472;28;20279;-70
2021/04/19 06:57:53;;;;;;;;;;;6.30;96.20;;;;;;5014085;28;19976;-69
2021/04/19 07:00:19;;;;;;;;;;;6.20;96.10;;;;;;5017914;28;19917;-70
2021/04/19 07:02:55;;;;;;;;;;;6.00;96.30;;;;;;5026258;28;19917;-70
2021/04/19 07:05:32;;;;;;;;;;;5.90;96.80;;;;;;5016964;28;19913;-70
2021/04/19 07:07:58;;;;;;;;;;;6.00;97.20;;;;;;5019049;28;19924;-70
2021/04/19 07:10:23;;;;;;;;;;;6.10;97.20;;;;;;5015736;28;19921;-69
2021/04/19 07:12:50;;;;;;;;;;;6.00;97.20;;;;;;5010741;28;19913;-70
2021/04/19 07:15:19;;;;;;;;;;;6.00;97.50;;;;;;5023486;28;19924;-70
2021/04/19 07:17:47;;;;;;;;;;;6.00;97.20;;;;;;5008601;28;19913;-70
2021/04/19 07:20:13;;;;;;;;;;;6.00;96.90;;;;;;5015394;28;20423;-70
2021/04/19 07:22:39;;;;;;;;;;;5.90;97.20;;;;;;5011782;28;19949;-71
2021/04/19 07:25:07;;;;;;;;;;;5.80;97.30;;;;;;5012223;28;19921;-70
2021/04/19 07:27:34;;;;;;;;;;;5.70;97.50;;;;;;5009242;28;19950;-71
2021/04/19 07:29:59;;;;;;;;;;;5.70;97.50;;;;;;5004347;28;19913;-71
2021/04/19 07:32:32;;;;;;;;;;;5.60;97.20;;;;;;5012950;28;20199;-71
2021/04/19 07:35:01;;;;;;;;;;;5.50;97.20;;;;;;5010211;28;19945;-71
2021/04/19 07:37:28;;;;;;;;;;;5.60;97.20;;;;;;5010565;28;20013;-72
2021/04/19 07:39:53;;;;;;;;;;;5.60;97.50;;;;;;5011495;28;20351;-71
2021/04/19 07:42:19;;;;;;;;;;;5.60;97.20;;;;;;5016342;28;19921;-71
2021/04/19 07:44:49;;;;;;;;;;;5.70;97.60;;;;;;5025921;28;19984;-71
2021/04/19 07:47:18;;;;;;;;;;;5.60;97.70;;;;;;5018112;28;19916;-71
2021/04/19 07:50:01;;;;;;;;;;;5.40;97.60;;;;;;5018141;28;19921;-71
2021/04/19 07:52:28;;;;;;;;;;;5.10;97.30;;;;;;5012887;28;19979;-70
2021/04/19 07:55:03;;;;;;;;;;;4.90;97.10;;;;;;5022174;28;19929;-71
2021/04/19 07:57:29;;;;;;;;;;;4.90;97.30;;;;;;5023176;28;19913;-71
2021/04/19 07:59:54;;;;;;;;;;;4.90;97.20;;;;;;5013822;28;19987;-71
2021/04/19 08:02:21;;;;;;;;;;;4.90;97.40;;;;;;5011469;28;19929;-72
2021/04/19 08:04:50;;;;;;;;;;;4.90;97.50;;;;;;5019599;28;19991;-71
2021/04/19 08:07:16;;;;;;;;;;;5.10;97.20;;;;;;5018771;28;19979;-70
2021/04/19 08:09:52;;;;;;;;;;;5.20;97.50;;;;;;5008034;28;19922;-70
2021/04/19 08:12:18;;;;;;;;;;;5.30;97.40;;;;;;5020447;28;20299;-69
2021/04/19 08:14:50;;;;;;;;;;;5.40;97.80;;;;;;5015250;28;19913;-69
2021/04/19 08:17:16;;;;;;;;;;;5.40;97.80;;;;;;5029890;28;19952;-70
2021/04/19 08:19:41;;;;;;;;;;;5.50;97.60;;;;;;5034728;28;19978;-69
2021/04/19 08:22:20;;;;;;;;;;;5.50;97.60;;;;;;5033135;28;20262;-70
2021/04/19 08:24:46;;;;;;;;;;;5.60;97.60;;;;;;5034064;28;20366;-71
2021/04/19 08:27:19;;;;;;;;;;;5.60;98.00;;;;;;5020032;28;19960;-69
2021/04/19 08:29:46;;;;;;;;;;;5.50;97.50;;;;;;5022452;28;19913;-70
2021/04/19 08:32:13;;;;;;;;;;;5.60;97.50;;;;;;5022687;28;19913;-70
2021/04/19 08:34:40;;;;;;;;;;;5.70;97.60;;;;;;5036202;28;19959;-69
2021/04/19 08:37:09;;;;;;;;;;;5.70;97.40;;;;;;5018264;28;19921;-69
2021/04/19 08:39:34;;;;;;;;;;;5.80;97.70;;;;;;5003481;28;19925;-69
2021/04/19 08:42:01;;;;;;;;;;;5.80;97.40;;;;;;5031224;28;19917;-69
2021/04/19 08:44:35;;;;;;;;;;;5.90;97.40;;;;;;5021616;28;19917;-69
2021/04/19 08:47:02;;;;;;;;;;;6.00;97.70;;;;;;5003715;28;20323;-69
2021/04/19 08:49:28;;;;;;;;;;;6.10;97.80;;;;;;5019357;28;20187;-70
2021/04/19 08:51:54;;;;;;;;;;;6.10;97.80;;;;;;5037487;28;19971;-69
2021/04/19 08:54:20;;;;;;;;;;;6.00;97.60;;;;;;5029599;28;20019;-70
2021/04/19 08:56:45;;;;;;;;;;;6.00;97.70;;;;;;5023275;28;19919;-69
2021/04/19 08:59:11;;;;;;;;;;;5.90;97.70;;;;;;5032714;28;19917;-70
2021/04/19 09:01:37;;;;;;;;;;;6.00;97.40;;;;;;5035106;28;19913;-71
2021/04/19 09:04:04;;;;;;;;;;;6.10;97.50;;;;;;5025708;28;20306;-71
2021/04/19 09:06:43;;;;;;;;;;;6.30;97.50;;;;;;5021484;28;19921;-70
2021/04/19 09:09:12;;;;;;;;;;;6.40;98.00;;;;;;5020012;28;19920;-68
2021/04/19 09:11:38;;;;;;;;;;;6.30;97.50;;;;;;5038146;28;19913;-69
2021/04/19 09:14:05;;;;;;;;;;;6.20;98.00;;;;;;5019920;28;19909;-67
2021/04/19 09:16:36;;;;;;;;;;;6.10;97.50;;;;;;5031573;28;19913;-68
2021/04/19 09:19:04;;;;;;;;;;;6.20;97.60;;;;;;5011094;28;19924;-70
2021/04/19 09:21:35;;;;;;;;;;;6.40;97.60;;;;;;5028596;28;19952;-70
2021/04/19 09:24:01;;;;;;;;;;;6.70;97.80;;;;;;5027048;28;19920;-68
2021/04/19 09:26:45;;;;;;;;;;;6.80;98.00;;;;;;5026353;28;20008;-67
2021/04/19 09:29:32;;;;;;;;;;;6.80;97.70;;;;;;5010474;28;19925;-68
2021/04/19 09:32:12;;;;;;;;;;;6.90;97.70;;;;;;5006844;28;19914;-68
2021/04/19 09:34:45;;;;;;;;;;;6.80;97.50;;;;;;5036757;28;20222;-68
2021/04/19 09:37:12;;;;;;;;;;;6.50;97.50;;;;;;4996730;28;19935;-67
2021/04/19 09:40:05;;;;;;;;;;;6.40;97.20;;;;;;5016228;28;19918;-70
2021/04/19 09:42:50;;;;;;;;;;;6.40;98.00;;;;;;5026748;28;19913;-69
2021/04/19 09:45:35;;;;;;;;;;;6.40;97.40;;;;;;5017995;28;19909;-70
2021/04/19 09:48:04;;;;;;;;;;;6.40;97.90;;;;;;5030604;28;19917;-68
2021/04/19 09:50:29;;;;;;;;;;;6.30;97.30;;;;;;5035652;28;19910;-69
2021/04/19 09:52:55;;;;;;;;;;;6.30;97.50;;;;;;5012162;28;19914;-68
2021/04/19 09:55:21;;;;;;;;;;;6.40;97.20;;;;;;5029416;28;20109;-68
2021/04/19 09:57:47;;;;;;;;;;;6.40;97.30;;;;;;5035975;28;19920;-69
2021/04/19 10:00:16;;;;;;;;;;;6.40;97.30;;;;;;5032013;28;19928;-68
2021/04/19 10:02:43;;;;;;;;;;;6.50;97.40;;;;;;5030907;28;19913;-69
2021/04/19 10:05:12;;;;;;;;;;;6.80;97.50;;;;;;5030417;28;19928;-69
2021/04/19 10:07:41;;;;;;;;;;;7.00;97.10;;;;;;5034188;28;19924;-68
2021/04/19 10:10:08;;;;;;;;;;;7.20;97.00;;;;;;5037039;28;19913;-70
2021/04/19 10:12:36;;;;;;;;;;;7.10;96.80;;;;;;5036147;28;19924;-69
2021/04/19 10:15:04;;;;;;;;;;;7.20;96.50;;;;;;5035924;28;19917;-68
2021/04/19 10:17:38;;;;;;;;;;;7.30;96.60;;;;;;5036500;28;19909;-70
2021/04/19 10:20:21;;;;;;;;;;;7.60;96.70;;;;;;5036733;28;20217;-68
2021/04/19 10:23:03;;;;;;;;;;;7.70;95.90;;;;;;5035296;28;19914;-69
2021/04/19 10:25:29;;;;;;;;;;;7.60;95.50;;;;;;5029204;28;19914;-69
2021/04/19 10:27:55;;;;;;;;;;;7.40;96.20;;;;;;5029914;28;19917;-68
2021/04/19 10:30:20;;;;;;;;;;;7.40;96.80;;;;;;5026064;28;19910;-68
2021/04/19 10:32:46;;;;;;;;;;;7.40;97.20;;;;;;5032765;28;20326;-69
2021/04/19 10:35:27;;;;;;;;;;;7.20;97.20;;;;;;5019132;28;19913;-68
2021/04/19 10:37:53;;;;;;;;;;;7.10;97.30;;;;;;5022988;28;20043;-68
2021/04/19 10:40:19;;;;;;;;;;;7.00;98.00;;;;;;5034871;28;19920;-67
2021/04/19 10:42:45;;;;;;;;;;;7.10;97.50;;;;;;5033057;28;19924;-68
2021/04/19 10:45:11;;;;;;;;;;;7.20;97.10;;;;;;5030865;28;20012;-68
2021/04/19 10:47:38;;;;;;;;;;;7.30;97.50;;;;;;5034554;28;19917;-67
2021/04/19 10:50:04;;;;;;;;;;;7.40;97.50;;;;;;5032029;28;20222;-68
2021/04/19 10:52:30;;;;;;;;;;;7.30;96.60;;;;;;5030525;28;19917;-68
2021/04/19 10:54:56;;;;;;;;;;;7.20;96.00;;;;;;5033441;28;19925;-68
2021/04/19 10:57:23;;;;;;;;;;;7.20;96.20;;;;;;5023481;28;19960;-68
2021/04/19 10:59:54;;;;;;;;;;;7.40;96.80;;;;;;5033327;28;19917;-68
2021/04/19 11:02:23;;;;;;;;;;;7.70;96.50;;;;;;5022515;28;20273;-68
2021/04/19 11:04:49;;;;;;;;;;;8.10;96.00;;;;;;5028012;28;19921;-67
2021/04/19 11:07:31;;;;;;;;;;;8.10;94.60;;;;;;5029437;28;19921;-69
2021/04/19 11:10:15;;;;;;;;;;;8.20;94.60;;;;;;5031012;28;19963;-70
2021/04/19 11:13:01;;;;;;;;;;;8.00;95.30;;;;;;5029536;28;19925;-69
2021/04/19 11:15:31;;;;;;;;;;;7.80;95.80;;;;;;5029706;28;20292;-70
2021/04/19 11:17:56;;;;;;;;;;;7.60;96.10;;;;;;5030353;28;19984;-69
2021/04/19 11:20:22;;;;;;;;;;;7.70;96.40;;;;;;5021464;28;20376;-68
2021/04/19 11:22:48;;;;;;;;;;;7.90;96.40;;;;;;5018767;28;19913;-68
2021/04/19 11:25:16;;;;;;;;;;;7.80;96.20;;;;;;5011942;28;20010;-68
2021/04/19 11:27:42;;;;;;;;;;;7.60;96.30;;;;;;5029145;28;19928;-69
2021/04/19 11:30:17;;;;;;;;;;;7.40;96.40;;;;;;5029368;28;19921;-67
2021/04/19 11:32:43;;;;;;;;;;;7.30;96.50;;;;;;5032575;28;19920;-69
2021/04/19 11:35:22;;;;;;;;;;;7.30;96.80;;;;;;5029488;28;20313;-69
2021/04/19 11:37:56;;;;;;;;;;;7.30;97.00;;;;;;5027102;28;20114;-68
2021/04/19 11:40:26;;;;;;;;;;;7.30;96.70;;;;;;5028915;28;20227;-69
2021/04/19 11:42:52;;;;;;;;;;;7.40;97.00;;;;;;5026354;28;20373;-68
2021/04/19 11:45:23;;;;;;;;;;;7.40;97.00;;;;;;5022820;28;20000;-69
2021/04/19 11:47:49;;;;;;;;;;;7.40;96.80;;;;;;5015258;28;19913;-67
2021/04/19 11:50:14;;;;;;;;;;;7.30;97.10;;;;;;5028481;28;19916;-68
2021/04/19 11:52:44;;;;;;;;;;;7.30;97.30;;;;;;5030161;28;20028;-69
2021/04/19 11:55:10;;;;;;;;;;;7.30;97.10;;;;;;4998533;28;19974;-68
2021/04/19 11:57:36;;;;;;;;;;;7.30;97.00;;;;;;4990147;28;19917;-69
2021/04/19 12:00:01;;;;;;;;;;;7.20;97.50;;;;;;5016200;28;20325;-70
2021/04/19 12:02:28;;;;;;;;;;;7.20;97.20;;;;;;5012573;28;20363;-70
2021/04/19 12:04:53;;;;;;;;;;;7.10;97.40;;;;;;5011302;28;19949;-70
2021/04/19 12:07:19;;;;;;;;;;;7.20;97.20;;;;;;5002674;28;19921;-70
2021/04/19 12:09:44;;;;;;;;;;;7.20;97.30;;;;;;5013658;28;19984;-70
2021/04/19 12:12:12;;;;;;;;;;;7.30;97.40;;;;;;5012632;28;19921;-71
2021/04/19 12:14:37;;;;;;;;;;;7.40;97.80;;;;;;5014869;28;19968;-69
2021/04/19 12:17:03;;;;;;;;;;;7.50;97.10;;;;;;5015081;28;19914;-69
2021/04/19 12:19:28;;;;;;;;;;;7.60;97.30;;;;;;5003347;28;19985;-69
2021/04/19 12:21:54;;;;;;;;;;;7.70;97.60;;;;;;5001270;28;19936;-69
2021/04/19 12:24:19;;;;;;;;;;;7.70;97.50;;;;;;5001482;28;19914;-68
2021/04/19 12:26:45;;;;;;;;;;;7.60;97.60;;;;;;4991163;28;20032;-68
2021/04/19 12:29:11;;;;;;;;;;;7.50;97.10;;;;;;5008505;28;19949;-68
2021/04/19 12:31:36;;;;;;;;;;;7.40;97.40;;;;;;5012264;28;19914;-69
2021/04/19 12:34:02;;;;;;;;;;;7.40;97.80;;;;;;5013046;28;19923;-69
2021/04/19 12:36:30;;;;;;;;;;;7.30;97.50;;;;;;4993654;28;20329;-70
2021/04/19 12:38:56;;;;;;;;;;;7.20;97.20;;;;;;5009612;28;19921;-70
2021/04/19 12:41:21;;;;;;;;;;;7.10;97.00;;;;;;5012681;28;19997;-70
2021/04/19 12:43:47;;;;;;;;;;;7.10;97.10;;;;;;5009725;28;19913;-70
2021/04/19 12:46:12;;;;;;;;;;;7.10;97.20;;;;;;5010683;28;19943;-70
2021/04/19 12:48:38;;;;;;;;;;;7.10;97.80;;;;;;5013161;28;19913;-71
2021/04/19 12:51:06;;;;;;;;;;;7.10;97.40;;;;;;5013671;28;20036;-70
2021/04/19 12:53:32;;;;;;;;;;;7.00;97.40;;;;;;5017098;28;19967;-70
2021/04/19 12:55:57;;;;;;;;;;;6.90;97.20;;;;;;5033677;28;19913;-71
2021/04/19 12:58:23;;;;;;;;;;;6.90;98.00;;;;;;5035410;28;20215;-70
2021/04/19 13:00:49;;;;;;;;;;;6.80;97.90;;;;;;5027807;28;20291;-70
2021/04/19 13:03:14;;;;;;;;;;;6.70;97.80;;;;;;5026118;28;20276;-70
2021/04/19 13:05:40;;;;;;;;;;;6.60;97.30;;;;;;5026408;28;19910;-71
2021/04/19 13:08:06;;;;;;;;;;;6.60;97.30;;;;;;5016879;28;20298;-70
2021/04/19 13:10:32;;;;;;;;;;;6.50;97.40;;;;;;5026875;28;19916;-69
2021/04/19 13:12:57;;;;;;;;;;;6.50;97.30;;;;;;5028336;28;19921;-71
2021/04/19 13:15:23;;;;;;;;;;;6.50;97.30;;;;;;5030978;28;19913;-71
2021/04/19 13:17:49;;;;;;;;;;;6.50;97.90;;;;;;5019926;28;19917;-71
2021/04/19 13:20:15;;;;;;;;;;;6.40;97.40;;;;;;5030263;28;20211;-72
2021/04/19 13:22:41;;;;;;;;;;;6.30;97.30;;;;;;5033365;28;19943;-70
2021/04/19 13:25:06;;;;;;;;;;;6.30;97.00;;;;;;5023963;28;19913;-71
2021/04/19 13:27:32;;;;;;;;;;;6.30;97.00;;;;;;5019579;28;19936;-72
2021/04/19 13:29:58;;;;;;;;;;;6.20;97.50;;;;;;5022998;28;19914;-72
2021/04/19 13:32:23;;;;;;;;;;;6.30;97.30;;;;;;5017015;28;19914;-71
2021/04/19 13:34:49;;;;;;;;;;;6.30;97.30;;;;;;5027322;28;20000;-71
2021/04/19 13:37:15;;;;;;;;;;;6.20;97.50;;;;;;5017942;28;19913;-72
2021/04/19 13:39:41;;;;;;;;;;;6.10;97.40;;;;;;5026330;28;19934;-70
2021/04/19 13:42:06;;;;;;;;;;;6.20;97.40;;;;;;5018417;28;20310;-71
2021/04/19 13:44:32;;;;;;;;;;;6.30;97.30;;;;;;5019977;28;20291;-72
2021/04/19 13:46:57;;;;;;;;;;;6.30;97.50;;;;;;5021975;28;19913;-70
2021/04/19 13:49:23;;;;;;;;;;;6.30;97.40;;;;;;5025379;28;20001;-71
2021/04/19 13:51:48;;;;;;;;;;;6.30;97.40;;;;;;5014865;28;19963;-72
2021/04/19 13:54:14;;;;;;;;;;;6.40;97.60;;;;;;5019041;28;19921;-72
2021/04/19 13:56:40;;;;;;;;;;;6.40;97.30;;;;;;5015565;28;20423;-70
2021/04/19 13:59:06;;;;;;;;;;;6.40;97.80;;;;;;5015099;28;20282;-71
2021/04/19 14:01:31;;;;;;;;;;;6.40;97.40;;;;;;5020108;28;19917;-70
2021/04/19 14:03:57;;;;;;;;;;;6.50;97.60;;;;;;5022589;28;19929;-71
2021/04/19 14:06:23;;;;;;;;;;;6.40;97.90;;;;;;5017823;28;20480;-71
2021/04/19 14:08:48;;;;;;;;;;;6.50;97.40;;;;;;5016466;28;19921;-70
2021/04/19 14:11:14;;;;;;;;;;;6.50;97.80;;;;;;5024095;28;20143;-71
2021/04/19 14:13:39;;;;;;;;;;;6.60;97.50;;;;;;5016637;28;19921;-70
2021/04/19 14:16:05;;;;;;;;;;;6.60;97.70;;;;;;5018172;28;19922;-70
2021/04/19 14:18:36;;;;;;;;;;;6.60;97.60;;;;;;5004882;28;19943;-69
2021/04/19 14:21:02;;;;;;;;;;;6.60;97.90;;;;;;5017708;28;20016;-70
2021/04/19 14:23:27;;;;;;;;;;;6.60;97.90;;;;;;5020469;28;20004;-70
2021/04/19 14:25:53;;;;;;;;;;;6.60;97.50;;;;;;5017913;28;19917;-69
2021/04/19 14:28:18;;;;;;;;;;;6.60;97.20;;;;;;5021494;28;20328;-70
2021/04/19 14:30:44;;;;;;;;;;;6.60;97.60;;;;;;5014483;28;19979;-70
2021/04/19 14:33:09;;;;;;;;;;;6.60;97.30;;;;;;5023512;28;19921;-70
2021/04/19 14:35:35;;;;;;;;;;;6.60;97.60;;;;;;5020861;28;20004;-70